Time;durP1;ratioP1;P1;durP2;ratioP2;P2;SDS_P1;SDS_P2;PMS_P1;PMS_P2;Temp;Humidity;BMP_temperature;BMP_pressure;BME280_temperature;BME280_humidity;BME280_pressure;Samples;Min_cycle;Max_cycle;Signal;HPM_P1;HPM_P2
2021/04/23 00:00:51;;;;;;;8.48;4.18;;;;;;;18.50;59.62;102529.28;5068413;28;20043;-64
2021/04/23 00:03:23;;;;;;;7.10;3.53;;;;;;;18.53;59.74;102528.97;5086638;28;20067;-64
2021/04/23 00:05:54;;;;;;;7.15;3.83;;;;;;;18.52;59.99;102532.63;5087331;28;20056;-64
2021/04/23 00:08:21;;;;;;;8.00;3.60;;;;;;;18.53;60.04;102536.94;5086553;28;20632;-64
2021/04/23 00:10:48;;;;;;;6.50;3.75;;;;;;;18.53;59.95;102534.28;5086087;28;20051;-64
2021/04/23 00:13:14;;;;;;;5.65;3.58;;;;;;;18.54;59.94;102532.47;5071774;28;20111;-64
2021/04/23 00:15:41;;;;;;;5.50;3.33;;;;;;;18.54;60.09;102543.09;5089976;28;20039;-64
2021/04/23 00:18:09;;;;;;;6.55;3.50;;;;;;;18.54;60.13;102549.25;5090310;28;20127;-64
2021/04/23 00:20:35;;;;;;;6.63;3.67;;;;;;;18.54;59.93;102543.94;5089280;28;20390;-64
2021/04/23 00:23:04;;;;;;;9.77;4.18;;;;;;;18.54;60.03;102549.25;5090633;28;20044;-64
2021/04/23 00:25:30;;;;;;;8.13;3.53;;;;;;;18.53;60.03;102544.09;5092000;28;20032;-64
2021/04/23 00:27:59;;;;;;;6.47;3.55;;;;;;;18.53;59.82;102544.09;5070877;28;20548;-64
2021/04/23 00:30:27;;;;;;;7.15;3.78;;;;;;;18.54;59.55;102543.09;5089384;28;20055;-64
2021/04/23 00:32:56;;;;;;;6.60;3.53;;;;;;;18.53;59.94;102544.09;5055943;28;20036;-64
2021/04/23 00:35:23;;;;;;;7.57;3.55;;;;;;;18.53;60.04;102544.91;5067238;28;20097;-64
2021/04/23 00:37:51;;;;;;;7.00;3.60;;;;;;;18.54;59.82;102535.13;5090378;28;20036;-64
2021/04/23 00:40:23;;;;;;;6.55;3.72;;;;;;;18.51;59.94;102530.94;5081314;28;20040;-64
2021/04/23 00:42:49;;;;;;;7.40;3.75;;;;;;;18.54;59.93;102519.19;5088904;28;20040;-64
2021/04/23 00:45:18;;;;;;;5.90;3.53;;;;;;;18.52;60.12;102532.63;5090295;28;20042;-64
2021/04/23 00:47:48;;;;;;;7.75;3.72;;;;;;;18.52;60.31;102521.97;5089124;28;20351;-64
2021/04/23 00:50:27;;;;;;;6.60;3.15;;;;;;;18.50;60.15;102520.47;5090330;28;20020;-64
2021/04/23 00:52:54;;;;;;;6.35;3.67;;;;;;;18.53;60.25;102517.50;5084687;28;20548;-64
2021/04/23 00:55:19;;;;;;;6.53;3.78;;;;;;;18.52;59.86;102515.84;5089244;28;20043;-64
2021/04/23 00:57:45;;;;;;;7.13;3.60;;;;;;;18.52;60.16;102511.34;5066679;28;20043;-64
2021/04/23 01:00:12;;;;;;;5.97;3.40;;;;;;;18.52;59.90;102511.34;5053747;28;20108;-64
2021/04/23 01:02:37;;;;;;;7.10;3.75;;;;;;;18.52;59.94;102508.69;5050396;28;20047;-64
2021/04/23 01:05:03;;;;;;;8.25;3.58;;;;;;;18.53;60.30;102507.72;5069983;28;20032;-64
2021/04/23 01:07:28;;;;;;;5.70;3.40;;;;;;;18.53;60.45;102501.56;5087609;28;20056;-64
2021/04/23 01:09:54;;;;;;;6.28;3.42;;;;;;;18.53;60.51;102504.22;5088704;28;20111;-64
2021/04/23 01:12:19;;;;;;;5.72;3.30;;;;;;;18.53;60.29;102510.38;5068589;28;20025;-64
2021/04/23 01:14:45;;;;;;;8.95;3.95;;;;;;;18.52;60.21;102500.72;5085311;28;20131;-64
2021/04/23 01:17:10;;;;;;;5.40;3.13;;;;;;;18.53;60.27;102501.56;5088229;28;20063;-64
2021/04/23 01:19:36;;;;;;;5.95;4.05;;;;;;;18.52;60.64;102495.41;5087577;28;20466;-64
2021/04/23 01:22:02;;;;;;;6.40;3.22;;;;;;;18.53;60.72;102490.94;5087182;28;20044;-64
2021/04/23 01:24:28;;;;;;;6.93;3.17;;;;;;;18.52;60.52;102490.09;5067012;28;20044;-65
2021/04/23 01:26:56;;;;;;;5.38;3.50;;;;;;;18.52;60.75;102492.75;5067495;28;20139;-64
2021/04/23 01:29:23;;;;;;;6.30;3.42;;;;;;;18.53;60.61;102488.28;5087580;28;20159;-64
2021/04/23 01:31:55;;;;;;;6.13;3.42;;;;;;;18.51;60.47;102490.25;5088666;28;20161;-64
2021/04/23 01:34:29;;;;;;;6.90;3.50;;;;;;;18.52;60.44;102491.91;5088014;28;20043;-64
2021/04/23 01:36:56;;;;;;;6.25;3.40;;;;;;;18.51;60.76;102485.75;5064686;28;20435;-64
2021/04/23 01:39:26;;;;;;;6.57;3.10;;;;;;;18.51;60.63;102488.44;5088137;28;20169;-64
2021/04/23 01:41:53;;;;;;;6.70;4.13;;;;;;;18.51;60.36;102483.09;5085067;28;20431;-64
2021/04/23 01:44:20;;;;;;;6.18;3.30;;;;;;;18.52;60.08;102486.59;5070165;28;20042;-64
2021/04/23 01:46:46;;;;;;;5.72;3.58;;;;;;;18.52;60.25;102483.94;5081717;28;20064;-64
2021/04/23 01:49:15;;;;;;;6.75;3.40;;;;;;;18.51;60.09;102476.97;5088502;28;20055;-64
2021/04/23 01:51:47;;;;;;;6.20;3.55;;;;;;;18.51;60.55;102480.44;5088355;28;20483;-64
2021/04/23 01:54:13;;;;;;;5.55;3.10;;;;;;;18.52;60.43;102479.47;5087397;28;20032;-64
2021/04/23 01:56:39;;;;;;;8.25;3.03;;;;;;;18.51;60.25;102469.00;5069875;28;20035;-64
2021/04/23 01:59:07;;;;;;;4.85;2.78;;;;;;;18.51;60.24;102475.13;5069613;28;20032;-64
2021/04/23 02:01:33;;;;;;;5.30;3.15;;;;;;;18.51;60.42;102475.13;5085991;28;20082;-64
2021/04/23 02:04:00;;;;;;;6.78;3.15;;;;;;;18.51;60.47;102472.47;5070761;28;20417;-65
2021/04/23 02:06:26;;;;;;;5.35;3.38;;;;;;;18.52;60.44;102473.31;5066753;28;20360;-64
2021/04/23 02:08:52;;;;;;;4.82;3.10;;;;;;;18.51;60.57;102472.47;5082665;28;20051;-64
2021/04/23 02:11:19;;;;;;;4.72;2.90;;;;;;;18.50;60.73;102473.47;5087528;28;20039;-64
2021/04/23 02:13:48;;;;;;;5.18;3.03;;;;;;;18.50;60.32;102473.47;5052150;28;20090;-64
2021/04/23 02:16:15;;;;;;;5.25;3.20;;;;;;;18.51;60.49;102479.63;5085332;28;20040;-64
2021/04/23 02:18:41;;;;;;;5.50;2.55;;;;;;;18.50;60.29;102473.47;5083170;28;20045;-64
2021/04/23 02:21:09;;;;;;;4.05;2.67;;;;;;;18.51;60.36;102472.47;5069769;28;20378;-64
2021/04/23 02:23:35;;;;;;;9.57;3.85;;;;;;;18.50;60.61;102475.28;5068821;28;20040;-64
2021/04/23 02:26:02;;;;;;;6.22;2.90;;;;;;;18.50;60.75;102481.44;5087976;28;20040;-64
2021/04/23 02:28:27;;;;;;;5.00;3.05;;;;;;;18.49;60.47;102477.09;5082937;28;20501;-64
2021/04/23 02:30:57;;;;;;;6.40;3.30;;;;;;;18.50;60.39;102475.28;5063023;28;20043;-65
2021/04/23 02:33:25;;;;;;;5.18;3.22;;;;;;;18.50;60.27;102480.59;5068953;28;20045;-64
2021/04/23 02:35:53;;;;;;;4.38;2.92;;;;;;;18.50;60.64;102475.28;5086512;28;20760;-64
2021/04/23 02:38:19;;;;;;;5.25;2.90;;;;;;;18.50;60.45;102475.28;5073186;28;20467;-64
2021/04/23 02:40:46;;;;;;;5.60;3.08;;;;;;;18.50;60.35;102469.97;5069362;28;20042;-64
2021/04/23 02:43:16;;;;;;;4.88;2.97;;;;;;;18.48;60.19;102467.47;5064691;28;20282;-64
2021/04/23 02:45:43;;;;;;;5.88;3.47;;;;;;;18.50;60.12;102475.28;5077309;28;20198;-64
2021/04/23 02:48:11;;;;;;;4.60;2.90;;;;;;;18.49;60.48;102463.81;5085337;28;20028;-64
2021/04/23 02:50:38;;;;;;;3.55;2.65;;;;;;;18.48;60.47;102466.63;5057970;28;20440;-64
2021/04/23 02:53:06;;;;;;;5.65;2.85;;;;;;;18.49;60.56;102466.47;5084567;28;20082;-64
2021/04/23 02:55:32;;;;;;;5.25;2.90;;;;;;;18.49;60.42;102468.31;5087914;28;20036;-64
2021/04/23 02:58:08;;;;;;;5.00;2.75;;;;;;;18.47;60.10;102465.78;5068668;28;20048;-64
2021/04/23 03:00:37;;;;;;;4.45;2.75;;;;;;;18.48;60.32;102458.66;5086538;28;20035;-64
2021/04/23 03:03:06;;;;;;;4.93;3.17;;;;;;;18.49;60.06;102463.00;5087327;28;20226;-64
2021/04/23 03:05:33;;;;;;;5.38;3.05;;;;;;;18.48;60.52;102467.47;5086244;28;20121;-64
2021/04/23 03:07:59;;;;;;;5.25;3.00;;;;;;;18.49;60.48;102470.97;5087383;28;20059;-64
2021/04/23 03:10:30;;;;;;;4.50;2.85;;;;;;;18.48;60.34;102467.47;5086223;28;20087;-64
2021/04/23 03:13:01;;;;;;;4.30;2.85;;;;;;;18.49;60.62;102465.66;5065420;28;20071;-64
2021/04/23 03:15:28;;;;;;;5.05;2.90;;;;;;;18.48;60.53;102469.28;5064181;28;20036;-64
2021/04/23 03:17:57;;;;;;;3.75;2.60;;;;;;;18.48;60.33;102464.81;5075216;28;20036;-64
2021/04/23 03:20:24;;;;;;;4.75;2.83;;;;;;;18.49;60.31;102465.66;5087213;28;20047;-65
2021/04/23 03:22:50;;;;;;;4.05;2.60;;;;;;;18.48;60.41;102464.81;5068397;28;20043;-64
2021/04/23 03:25:16;;;;;;;4.22;2.85;;;;;;;18.48;60.20;102475.44;5068252;28;20036;-65
2021/04/23 03:27:43;;;;;;;5.53;3.00;;;;;;;18.48;60.23;102478.09;5065832;28;20101;-64
2021/04/23 03:30:19;;;;;;;4.50;2.90;;;;;;;18.45;60.44;102481.03;5075896;28;20024;-64
2021/04/23 03:32:45;;;;;;;3.75;2.55;;;;;;;18.46;60.35;102474.75;5086122;28;20048;-64
2021/04/23 03:35:12;;;;;;;5.03;2.97;;;;;;;18.47;60.15;102478.25;5086169;28;20072;-64
2021/04/23 03:37:38;;;;;;;5.38;2.78;;;;;;;18.47;60.39;102465.78;5085818;28;20036;-64
2021/04/23 03:40:06;;;;;;;4.35;3.00;;;;;;;18.48;60.50;102477.25;5086481;28;20864;-64
2021/04/23 03:42:31;;;;;;;4.38;2.70;;;;;;;18.47;60.31;102479.09;5067486;28;20043;-64
2021/04/23 03:44:57;;;;;;;4.25;2.42;;;;;;;18.45;60.04;102489.00;5070310;28;20032;-64
2021/04/23 03:47:23;;;;;;;4.95;2.70;;;;;;;18.45;60.26;102489.00;5088792;28;20455;-64
2021/04/23 03:49:49;;;;;;;4.47;2.60;;;;;;;18.45;60.41;102496.97;5057348;28;20043;-64
2021/04/23 03:52:15;;;;;;;4.38;2.78;;;;;;;18.45;60.38;102496.13;5059464;28;20127;-64
2021/04/23 03:54:41;;;;;;;4.40;2.80;;;;;;;18.45;60.43;102490.81;5090131;28;20487;-64
2021/04/23 03:57:06;;;;;;;4.20;2.47;;;;;;;18.45;60.53;102485.50;5070520;28;20147;-64
2021/04/23 03:59:33;;;;;;;3.70;2.40;;;;;;;18.45;60.54;102490.81;5071013;28;20036;-64
2021/04/23 04:01:59;;;;;;;4.18;2.50;;;;;;;18.45;60.80;102498.78;5084808;28;20394;-64
2021/04/23 04:04:25;;;;;;;4.45;2.60;;;;;;;18.45;60.94;102493.47;5078140;28;20043;-64
2021/04/23 04:06:51;;;;;;;4.82;2.72;;;;;;;18.44;60.69;102497.97;5088717;28;20040;-63
2021/04/23 04:09:17;;;;;;;5.28;2.70;;;;;;;18.44;61.09;102497.97;5055465;28;20043;-64
2021/04/23 04:11:43;;;;;;;4.35;2.72;;;;;;;18.43;60.79;102501.59;5090754;28;20051;-64
2021/04/23 04:14:09;;;;;;;5.25;2.75;;;;;;;18.44;60.88;102494.47;5089573;28;20032;-64
2021/04/23 04:16:34;;;;;;;3.75;2.55;;;;;;;18.43;60.42;102493.63;5091146;28;20038;-64
2021/04/23 04:19:01;;;;;;;4.63;2.70;;;;;;;18.44;60.13;102502.44;5084880;28;20032;-64
2021/04/23 04:21:26;;;;;;;5.03;2.70;;;;;;;18.42;60.30;102496.44;5072194;28;20036;-64
2021/04/23 04:23:51;;;;;;;4.13;2.60;;;;;;;18.41;60.02;102503.56;5071288;28;20055;-64
2021/04/23 04:26:17;;;;;;;5.57;2.40;;;;;;;18.41;60.11;102495.59;5071441;28;20335;-64
2021/04/23 04:28:43;;;;;;;5.25;2.72;;;;;;;18.42;59.81;102499.94;5089035;28;20423;-64
2021/04/23 04:31:09;;;;;;;3.60;2.35;;;;;;;18.42;59.91;102505.25;5084792;28;20042;-64
2021/04/23 04:33:34;;;;;;;3.67;2.40;;;;;;;18.41;60.19;102497.44;5086715;28;20040;-64
2021/04/23 04:36:00;;;;;;;3.67;2.25;;;;;;;18.41;60.29;102497.44;5088378;28;20051;-64
2021/04/23 04:38:25;;;;;;;4.82;2.40;;;;;;;18.41;60.11;102497.44;5070573;28;20174;-64
2021/04/23 04:40:52;;;;;;;2.97;2.30;;;;;;;18.40;60.32;102499.25;5090731;28;20047;-64
2021/04/23 04:43:19;;;;;;;3.70;2.35;;;;;;;18.40;59.82;102493.94;5089080;28;20456;-64
2021/04/23 04:45:47;;;;;;;4.07;2.70;;;;;;;18.40;60.42;102496.59;5090281;28;20035;-64
2021/04/23 04:48:13;;;;;;;3.15;2.08;;;;;;;18.40;60.13;102501.91;5085917;28;20036;-64
2021/04/23 04:50:45;;;;;;;6.93;2.55;;;;;;;18.39;60.94;102499.41;5090154;28;20204;-64
2021/04/23 04:53:12;;;;;;;3.78;2.67;;;;;;;18.39;60.69;102492.25;5062711;28;20603;-64
2021/04/23 04:55:41;;;;;;;3.95;2.30;;;;;;;18.40;60.60;102496.59;5090077;28;20031;-64
2021/04/23 04:58:10;;;;;;;3.78;2.22;;;;;;;18.39;60.67;102492.25;5064918;28;20065;-64
2021/04/23 05:00:38;;;;;;;4.03;2.40;;;;;;;18.38;60.45;102490.59;5079473;28;20028;-64
2021/04/23 05:03:05;;;;;;;3.60;2.30;;;;;;;18.39;60.38;102497.56;5074003;28;20398;-64
2021/04/23 05:05:31;;;;;;;4.75;2.65;;;;;;;18.38;60.10;102495.91;5088969;28;20381;-64
2021/04/23 05:07:58;;;;;;;4.10;2.38;;;;;;;18.38;59.94;102495.91;5090053;28;20139;-64
2021/04/23 05:10:25;;;;;;;3.85;2.40;;;;;;;18.37;60.04;102510.19;5088696;28;20043;-64
2021/04/23 05:12:52;;;;;;;3.70;2.30;;;;;;;18.38;59.95;102503.88;5067799;28;20346;-64
2021/04/23 05:15:19;;;;;;;3.17;2.30;;;;;;;18.36;60.14;102500.53;5084360;28;20044;-64
2021/04/23 05:17:46;;;;;;;3.90;2.72;;;;;;;18.37;60.51;102507.53;5071177;28;20115;-64
2021/04/23 05:20:13;;;;;;;3.83;2.30;;;;;;;18.38;60.22;102497.72;5090006;28;20439;-64
2021/04/23 05:22:39;;;;;;;3.83;2.13;;;;;;;18.37;60.05;102504.88;5066303;28;20944;-64
2021/04/23 05:25:08;;;;;;;4.22;2.60;;;;;;;18.36;59.85;102508.50;5090155;28;20028;-64
2021/04/23 05:27:34;;;;;;;3.15;2.00;;;;;;;18.37;60.04;102502.22;5087157;28;20024;-64
2021/04/23 05:30:00;;;;;;;3.80;2.40;;;;;;;18.37;60.26;102506.69;5070984;28;20561;-64
2021/04/23 05:32:26;;;;;;;4.28;2.60;;;;;;;18.37;60.13;102514.66;5087445;28;20036;-64
2021/04/23 05:34:52;;;;;;;4.43;2.50;;;;;;;18.37;60.08;102512.00;5064557;28;20063;-64
2021/04/23 05:37:18;;;;;;;3.38;2.38;;;;;;;18.37;60.36;102515.50;5071359;28;20089;-64
2021/04/23 05:39:44;;;;;;;2.90;2.05;;;;;;;18.36;60.12;102521.78;5088114;28;20081;-64
2021/04/23 05:42:13;;;;;;;3.85;2.17;;;;;;;18.37;60.48;102525.28;5049255;28;20044;-64
2021/04/23 05:44:40;;;;;;;3.10;2.30;;;;;;;18.37;60.79;102528.78;5086683;28;20139;-64
2021/04/23 05:47:05;;;;;;;4.18;2.30;;;;;;;18.36;60.67;102521.78;5089091;28;20541;-64
2021/04/23 05:49:34;;;;;;;3.70;2.15;;;;;;;18.36;60.78;102527.09;5087309;28;20036;-64
2021/04/23 05:52:01;;;;;;;4.78;2.63;;;;;;;18.36;60.54;102524.44;5088475;28;20090;-64
2021/04/23 05:54:27;;;;;;;2.83;2.03;;;;;;;18.37;60.95;102527.94;5087602;28;20089;-64
2021/04/23 05:56:53;;;;;;;3.70;2.22;;;;;;;18.36;60.58;102527.09;5068013;28;20032;-64
2021/04/23 05:59:19;;;;;;;3.65;2.42;;;;;;;18.36;60.66;102529.75;5063179;28;20024;-64
2021/04/23 06:01:46;;;;;;;2.88;2.10;;;;;;;18.37;60.50;102538.56;5059585;28;20036;-64
2021/04/23 06:04:11;;;;;;;3.58;2.53;;;;;;;18.36;60.47;102534.25;5080229;28;20047;-64
2021/04/23 06:06:37;;;;;;;3.63;2.10;;;;;;;18.36;60.06;102539.56;5084559;28;20123;-64
2021/04/23 06:09:04;;;;;;;3.22;2.20;;;;;;;18.36;60.27;102536.91;5076621;28;20659;-64
2021/04/23 06:11:30;;;;;;;3.88;2.13;;;;;;;18.35;59.84;102530.75;5088198;28;20097;-64
2021/04/23 06:13:55;;;;;;;4.45;2.17;;;;;;;18.35;59.84;102536.06;5069370;28;20036;-64
2021/04/23 06:16:21;;;;;;;3.90;2.10;;;;;;;18.34;59.79;102534.38;5087934;28;20494;-64
2021/04/23 06:18:47;;;;;;;4.15;2.20;;;;;;;18.34;59.49;102537.03;5051577;28;20086;-64
2021/04/23 06:21:13;;;;;;;3.22;2.20;;;;;;;18.34;59.59;102538.88;5088550;28;20040;-64
2021/04/23 06:23:39;;;;;;;3.78;2.00;;;;;;;18.35;59.83;102540.53;5069504;28;20028;-64
2021/04/23 06:26:05;;;;;;;3.72;2.17;;;;;;;18.35;59.35;102538.72;5069277;28;20035;-64
2021/04/23 06:28:32;;;;;;;3.67;2.00;;;;;;;18.34;59.62;102539.69;5068696;28;20043;-64
2021/04/23 06:30:57;;;;;;;3.15;2.25;;;;;;;18.35;60.41;102544.03;5087855;28;20043;-64
2021/04/23 06:33:33;;;;;;;3.33;2.15;;;;;;;18.34;60.52;102545.00;5088090;28;20044;-64
2021/04/23 06:35:58;;;;;;;3.28;2.20;;;;;;;18.34;60.48;102544.19;5088014;28;20042;-64
2021/04/23 06:38:24;;;;;;;2.55;1.90;;;;;;;18.34;60.28;102555.66;5069606;28;20033;-64
2021/04/23 06:40:50;;;;;;;3.47;2.00;;;;;;;18.34;60.70;102550.34;5088235;28;20032;-64
2021/04/23 06:43:16;;;;;;;3.58;2.03;;;;;;;18.35;60.48;102543.19;5069346;28;20754;-65
2021/04/23 06:45:42;;;;;;;7.80;2.50;;;;;;;18.36;60.37;102548.34;5084685;28;20066;-65
2021/04/23 06:48:12;;;;;;;4.00;2.20;;;;;;;18.36;60.49;102542.22;5088267;28;20036;-63
2021/04/23 06:50:39;;;;;;;7.40;2.28;;;;;;;18.37;60.39;102549.19;5088792;28;20040;-63
2021/04/23 06:53:04;;;;;;;9.82;2.50;;;;;;;18.39;60.65;102550.72;5083296;28;20036;-63
2021/04/23 06:55:30;;;;;;;6.97;2.53;;;;;;;18.39;60.75;102549.88;5089506;28;20035;-63
2021/04/23 06:57:56;;;;;;;7.63;2.45;;;;;;;18.40;60.80;102551.56;5070448;28;20035;-63
2021/04/23 07:00:27;;;;;;;8.57;2.60;;;;;;;18.42;60.91;102546.91;5083522;28;20085;-63
2021/04/23 07:02:53;;;;;;;9.65;2.58;;;;;;;18.42;61.38;102546.91;5087472;28;20047;-63
2021/04/23 07:05:19;;;;;;;4.88;2.45;;;;;;;18.43;60.98;102540.63;5070276;28;20245;-63
2021/04/23 07:07:45;;;;;;;6.15;2.28;;;;;;;18.43;61.51;102541.47;5061891;28;20076;-63
2021/04/23 07:10:14;;;;;;;5.10;2.80;;;;;;;18.44;61.45;102543.13;5033366;28;20044;-63
2021/04/23 07:12:40;;;;;;;6.03;2.42;;;;;;;18.45;61.59;102541.31;5072715;28;20036;-63
2021/04/23 07:15:08;;;;;;;10.57;2.95;;;;;;;18.45;61.52;102543.97;5067701;28;20063;-63
2021/04/23 07:17:34;;;;;;;7.80;2.60;;;;;;;18.45;61.52;102541.31;5069717;28;20040;-63
2021/04/23 07:19:59;;;;;;;12.07;2.92;;;;;;;18.45;61.20;102541.31;5070969;28;20036;-63
2021/04/23 07:22:25;;;;;;;15.10;2.90;;;;;;;18.45;60.51;102546.63;5087144;28;20550;-63
2021/04/23 07:24:50;;;;;;;6.90;2.67;;;;;;;18.44;60.85;102540.47;5053946;28;20032;-64
2021/04/23 07:27:16;;;;;;;7.97;2.40;;;;;;;18.47;60.44;102542.88;5086743;28;20125;-62
2021/04/23 07:29:41;;;;;;;4.97;2.50;;;;;;;18.47;60.65;102545.53;5069527;28;20402;-64
2021/04/23 07:32:07;;;;;;;11.13;2.95;;;;;;;18.48;60.80;102547.19;5054064;28;20039;-65
2021/04/23 07:34:32;;;;;;;10.15;2.63;;;;;;;18.50;60.78;102552.34;5069143;28;20390;-64
2021/04/23 07:36:58;;;;;;;10.02;2.95;;;;;;;18.52;60.72;102553.88;5085736;28;20035;-63
2021/04/23 07:39:26;;;;;;;5.00;2.60;;;;;;;18.54;60.34;102554.56;5059243;28;20055;-63
2021/04/23 07:41:54;;;;;;;13.50;2.95;;;;;;;18.56;60.74;102554.41;5088652;28;20420;-67
2021/04/23 07:44:20;;;;;;;10.82;3.00;;;;;;;18.56;60.31;102549.94;5081559;28;20089;-63
2021/04/23 07:46:46;;;;;;;14.05;3.05;;;;;;;18.56;60.70;102557.06;5080837;28;20032;-63
2021/04/23 07:49:12;;;;;;;9.18;2.75;;;;;;;18.56;60.42;102549.94;5061500;28;20043;-64
2021/04/23 07:51:37;;;;;;;12.00;2.63;;;;;;;18.56;60.36;102560.56;5088568;28;20024;-63
2021/04/23 07:54:03;;;;;;;23.73;3.72;;;;;;;18.56;60.35;102549.94;5087176;28;20040;-63
2021/04/23 07:56:29;;;;;;;11.75;2.70;;;;;;;18.56;60.35;102557.91;5083408;28;20077;-63
2021/04/23 07:58:54;;;;;;;7.40;2.95;;;;;;;18.55;60.18;102561.56;5047149;28;20040;-63
2021/04/23 08:01:20;;;;;;;12.60;3.38;;;;;;;18.54;59.96;102559.03;5067873;28;20036;-63
2021/04/23 08:03:45;;;;;;;26.85;6.15;;;;;;;18.55;60.21;102560.72;5086276;28;20032;-63
2021/04/23 08:06:11;;;;;;;20.75;4.07;;;;;;;18.55;60.17;102563.38;5052969;28;20110;-63
2021/04/23 08:08:36;;;;;;;11.70;3.20;;;;;;;18.54;60.11;102557.22;5088051;28;20106;-63
2021/04/23 08:11:02;;;;;;;12.35;3.40;;;;;;;18.55;59.67;102558.91;5086479;28;20492;-63
2021/04/23 08:13:27;;;;;;;15.77;3.55;;;;;;;18.55;59.75;102558.06;5087052;28;20477;-63
2021/04/23 08:15:53;;;;;;;15.23;3.67;;;;;;;18.54;59.87;102561.69;5069483;28;20089;-63
2021/04/23 08:18:20;;;;;;;14.65;3.30;;;;;;;18.55;59.51;102561.56;5088940;28;20491;-63
2021/04/23 08:20:47;;;;;;;17.58;3.85;;;;;;;18.53;59.12;102552.88;5088664;28;20028;-63
2021/04/23 08:23:12;;;;;;;15.05;3.70;;;;;;;18.54;59.03;102559.03;5068917;28;20050;-63
2021/04/23 08:25:38;;;;;;;12.27;3.53;;;;;;;18.53;59.20;102552.88;5087350;28;20044;-64
2021/04/23 08:28:04;;;;;;;14.70;3.22;;;;;;;18.53;59.17;102550.22;5087078;28;20478;-63
2021/04/23 08:30:29;;;;;;;11.45;2.92;;;;;;;18.52;59.25;102548.56;5069272;28;20043;-63
2021/04/23 08:32:57;;;;;;;9.60;2.95;;;;;;;18.52;58.36;102555.69;5070630;28;20047;-63
2021/04/23 08:35:23;;;;;;;15.35;3.55;;;;;;;18.51;58.46;102552.19;5089895;28;20040;-63
2021/04/23 08:37:49;;;;;;;11.48;3.63;;;;;;;18.51;58.15;102549.53;5055993;28;20037;-63
2021/04/23 08:40:17;;;;;;;14.32;3.78;;;;;;;18.50;57.63;102560.31;5055618;28;20043;-63
2021/04/23 08:42:43;;;;;;;11.45;3.42;;;;;;;18.48;57.08;102556.97;5084937;28;20036;-64
2021/04/23 08:45:14;;;;;;;12.88;3.72;;;;;;;18.43;56.49;102551.25;5064066;28;20047;-64
2021/04/23 08:47:41;;;;;;;12.60;3.35;;;;;;;18.40;55.93;102544.41;5087741;28;20560;-63
2021/04/23 08:50:09;;;;;;;11.60;3.17;;;;;;;18.38;55.79;102550.88;5091537;28;20051;-63
2021/04/23 08:52:36;;;;;;;10.40;2.85;;;;;;;18.31;54.83;102542.66;5071387;28;20132;-64
2021/04/23 08:55:03;;;;;;;9.40;2.42;;;;;;;18.30;54.22;102553.41;5071749;28;20175;-63
2021/04/23 08:57:28;;;;;;;8.73;2.67;;;;;;;18.24;53.72;102545.03;5071340;28;20068;-63
2021/04/23 08:59:54;;;;;;;10.40;2.75;;;;;;;18.22;53.50;102547.00;5090334;28;20665;-63
2021/04/23 09:02:19;;;;;;;6.70;2.67;;;;;;;18.19;52.92;102536.69;5087194;28;20032;-64
2021/04/23 09:04:45;;;;;;;8.27;2.35;;;;;;;18.17;52.44;102543.97;5082572;28;20043;-63
2021/04/23 09:07:10;;;;;;;9.80;2.50;;;;;;;18.14;52.01;102533.59;5090109;28;20056;-63
2021/04/23 09:09:43;;;;;;;9.07;2.58;;;;;;;18.12;51.41;102537.41;5056041;28;20048;-62
2021/04/23 09:12:16;;;;;;;10.23;2.25;;;;;;;18.08;49.98;102534.19;5089686;28;20121;-62
2021/04/23 09:14:42;;;;;;;7.00;1.98;;;;;;;18.05;49.62;102531.00;5070630;28;20032;-62
2021/04/23 09:17:08;;;;;;;7.18;1.95;;;;;;;17.99;49.19;102529.78;5089554;28;20039;-62
2021/04/23 09:19:35;;;;;;;11.57;2.05;;;;;;;17.94;48.35;102524.88;5090571;28;20024;-62
2021/04/23 09:22:19;;;;;;;7.57;1.90;;;;;;;17.90;47.73;102526.16;5090252;28;20036;-63
2021/04/23 09:24:52;;;;;;;5.63;1.63;;;;;;;17.88;47.75;102516.66;5063377;28;20107;-62
2021/04/23 09:27:21;;;;;;;7.30;2.03;;;;;;;17.84;46.79;102526.72;5090024;28;20089;-63
2021/04/23 09:29:51;;;;;;;5.40;1.58;;;;;;;17.81;46.20;102537.63;5072378;28;20107;-62
2021/04/23 09:32:23;;;;;;;8.27;1.92;;;;;;;17.75;45.77;102530.22;5071536;28;20027;-62
2021/04/23 09:34:59;;;;;;;7.50;1.60;;;;;;;17.68;44.53;102529.16;5090255;28;20069;-62
2021/04/23 09:37:30;;;;;;;6.15;1.70;;;;;;;17.67;44.41;102530.06;5071750;28;20510;-63
2021/04/23 09:40:13;;;;;;;5.38;1.58;;;;;;;17.63;44.31;102529.50;5090380;28;20395;-63
2021/04/23 09:42:52;;;;;;;4.53;1.50;;;;;;;17.61;43.92;102530.63;5089073;28;20064;-63
2021/04/23 09:45:20;;;;;;;7.18;1.55;;;;;;;17.61;43.86;102534.13;5089907;28;20375;-63
2021/04/23 09:47:46;;;;;;;7.90;1.73;;;;;;;17.59;43.94;102532.59;5071182;28;20079;-63
2021/04/23 09:50:13;;;;;;;6.95;1.90;;;;;;;17.56;43.20;102527.59;5072537;28;20177;-63
2021/04/23 09:52:53;;;;;;;5.38;1.80;;;;;;;17.51;42.85;102521.84;5089147;28;20039;-63
2021/04/23 09:55:28;;;;;;;4.45;1.40;;;;;;;17.49;43.01;102535.25;5090332;28;20039;-63
2021/04/23 09:58:05;;;;;;;6.15;1.90;;;;;;;17.47;43.00;102523.09;5088198;28;20068;-62
2021/04/23 10:00:36;;;;;;;7.10;1.70;;;;;;;17.51;42.61;102521.84;5090170;28;20043;-62
2021/04/23 10:03:04;;;;;;;8.55;2.03;;;;;;;17.46;42.10;102527.59;5089895;28;20094;-62
2021/04/23 10:05:30;;;;;;;6.65;1.73;;;;;;;17.45;42.17;102517.94;5089962;28;20035;-63
2021/04/23 10:07:56;;;;;;;6.35;1.58;;;;;;;17.45;42.09;102519.75;5075324;28;20060;-63
2021/04/23 10:10:22;;;;;;;6.82;1.83;;;;;;;17.42;42.07;102520.88;5089676;28;20032;-63
2021/04/23 10:12:52;;;;;;;9.73;1.90;;;;;;;17.43;41.96;102522.56;5071541;28;20024;-62
2021/04/23 10:15:25;;;;;;;6.20;1.60;;;;;;;17.40;41.23;102522.84;5090048;28;20099;-63
2021/04/23 10:18:11;;;;;;;6.47;1.38;;;;;;;17.33;41.31;102517.25;5077262;28;20108;-62
2021/04/23 10:20:42;;;;;;;5.20;1.60;;;;;;;17.37;41.28;102523.13;5089364;28;20032;-62
2021/04/23 10:23:22;;;;;;;5.55;1.40;;;;;;;17.34;40.95;102524.22;5090314;28;20024;-62
2021/04/23 10:25:49;;;;;;;5.30;1.90;;;;;;;17.33;40.89;102519.91;5089163;28;20145;-62
2021/04/23 10:28:20;;;;;;;7.25;1.70;;;;;;;17.31;40.40;102527.16;5088635;28;20494;-62
2021/04/23 10:30:48;;;;;;;6.03;1.48;;;;;;;17.32;40.46;102528.84;5070986;28;20036;-62
2021/04/23 10:33:16;;;;;;;5.57;1.45;;;;;;;17.33;40.82;102537.63;5071854;28;20372;-62
2021/04/23 10:35:44;;;;;;;6.15;1.83;;;;;;;17.34;40.64;102539.31;5055939;28;20044;-62
2021/04/23 10:38:15;;;;;;;5.22;1.63;;;;;;;17.34;40.51;102534.00;5089507;28;20090;-62
2021/04/23 10:40:43;;;;;;;10.95;1.67;;;;;;;17.35;40.25;102536.50;5089280;28;20028;-62
2021/04/23 10:43:15;;;;;;;6.18;1.50;;;;;;;17.35;40.28;102530.38;5075105;28;20054;-62
2021/04/23 10:45:44;;;;;;;8.43;2.08;;;;;;;17.35;40.34;102536.50;5089348;28;20540;-62
2021/04/23 10:48:12;;;;;;;4.80;1.40;;;;;;;17.34;40.20;102531.34;5088526;28;20055;-62
2021/04/23 10:51:03;;;;;;;7.22;1.50;;;;;;;17.32;39.92;102536.78;5089150;28;20066;-63
2021/04/23 10:53:28;;;;;;;4.38;1.40;;;;;;;17.35;39.79;102530.38;5089539;28;20152;-62
2021/04/23 10:55:58;;;;;;;7.97;1.40;;;;;;;17.35;39.56;102533.84;5087997;28;20028;-62
2021/04/23 10:58:29;;;;;;;6.65;1.48;;;;;;;17.33;39.38;102522.56;5087696;28;20032;-62
2021/04/23 11:01:03;;;;;;;5.13;1.20;;;;;;;17.32;39.23;102520.88;5071106;28;20059;-63
2021/04/23 11:03:36;;;;;;;5.40;1.48;;;;;;;17.33;38.94;102516.41;5088238;28;20122;-62
2021/04/23 11:06:05;;;;;;;5.68;1.88;;;;;;;17.31;38.63;102518.38;5071110;28;20047;-62
2021/04/23 11:08:34;;;;;;;7.95;1.70;;;;;;;17.30;38.20;102522.84;5087693;28;20499;-63
2021/04/23 11:11:08;;;;;;;4.00;1.20;;;;;;;17.27;38.00;102517.81;5075675;28;20459;-62
2021/04/23 11:13:36;;;;;;;5.68;1.50;;;;;;;17.26;37.68;102520.63;5070019;28;20364;-62
2021/04/23 11:18:45;;;;;;;5.25;1.50;;;;;;;17.26;37.82;102515.31;5088593;28;20059;-63
2021/04/23 11:21:37;;;;;;;7.18;1.95;;;;;;;17.21;37.61;102518.41;5089577;28;20036;-62
2021/04/23 11:24:18;;;;;;;4.72;1.55;;;;;;;17.21;36.91;102513.09;5087996;28;20680;-62
2021/04/23 11:29:25;;;;;;;5.53;1.50;;;;;;;17.20;37.23;102503.47;5087789;28;20490;-62
2021/04/23 11:32:09;;;;;;;6.28;1.60;;;;;;;17.18;36.79;102500.09;5070901;28;20039;-63